createdAt,value
2024-05-09T00:01:33.663Z,82.40
2024-05-09T00:06:36.420Z,83.37
2024-05-09T00:11:41.571Z,83.25
2024-05-09T00:16:44.265Z,84.46
2024-05-09T00:21:46.927Z,83.72
2024-05-09T00:26:52.200Z,82.68
2024-05-09T00:31:55.054Z,83.16
2024-05-09T00:36:57.734Z,85.09
2024-05-09T00:42:03.115Z,84.25
2024-05-09T00:47:06.742Z,84.03
2024-05-09T00:52:10.747Z,84.34
2024-05-09T00:57:17.527Z,84.33
2024-05-09T01:02:21.599Z,83.37
2024-05-09T01:07:25.011Z,83.26
2024-05-09T01:12:30.495Z,81.79
2024-05-09T01:17:33.460Z,81.74
2024-05-09T01:22:37.349Z,82.34
2024-05-09T01:27:42.515Z,82.68
2024-05-09T01:32:45.280Z,82.98
2024-05-09T01:37:48.114Z,84.47
2024-05-09T01:42:53.622Z,84.14
2024-05-09T01:47:56.579Z,86.02
2024-05-09T01:52:59.572Z,85.82
2024-05-09T01:58:05.672Z,86.27
2024-05-09T02:03:09.056Z,86.71
2024-05-09T02:08:13.948Z,87.07
2024-05-09T02:13:19.556Z,86.67
2024-05-09T02:18:22.553Z,87.07
2024-05-09T02:23:25.356Z,88.81
2024-05-09T02:28:30.650Z,89.95
2024-05-09T02:33:33.695Z,91.14
2024-05-09T02:38:37.143Z,93.49
2024-05-09T02:43:43.483Z,93.98
2024-05-09T02:48:46.273Z,95.67
2024-05-09T02:53:48.956Z,95.31
2024-05-09T02:58:54.690Z,96.86
2024-05-09T03:03:57.479Z,97.52
2024-05-09T03:09:00.707Z,98.60
2024-05-09T03:14:06.276Z,99.16
2024-05-09T03:19:09.047Z,99.92
2024-05-09T03:24:12.349Z,100.00
2024-05-09T03:29:17.908Z,100.00
2024-05-09T03:34:20.701Z,100.00
2024-05-09T03:39:23.204Z,100.00
2024-05-09T03:44:28.539Z,100.00
2024-05-09T03:49:31.527Z,100.00
2024-05-09T03:54:35.649Z,100.00
2024-05-09T03:59:41.415Z,100.00
2024-05-09T04:04:43.904Z,99.67
2024-05-09T04:09:46.398Z,99.08
2024-05-09T04:14:51.659Z,99.83
2024-05-09T04:19:54.374Z,99.71
2024-05-09T04:24:57.029Z,99.71
2024-05-09T04:30:03.582Z,98.23
2024-05-09T04:35:06.447Z,96.31
2024-05-09T04:40:20.499Z,80.97
2024-05-09T04:45:29.785Z,70.40
2024-05-09T04:50:38.242Z,63.79
2024-05-09T04:55:42.283Z,58.18
2024-05-09T05:00:47.965Z,54.05
2024-05-09T05:05:50.562Z,51.19
2024-05-09T05:10:53.401Z,50.32
2024-05-09T05:15:59.062Z,44.79
2024-05-09T05:21:01.560Z,46.24
2024-05-09T05:26:05.450Z,46.60
2024-05-09T05:31:10.586Z,42.31
2024-05-09T05:36:13.328Z,48.61
2024-05-09T05:41:16.003Z,41.22
2024-05-09T05:46:21.112Z,39.94
2024-05-09T05:51:24.058Z,41.88
2024-05-09T05:56:27.010Z,44.70
2024-05-09T06:01:32.448Z,43.69
2024-05-09T06:06:34.956Z,41.90
2024-05-09T06:11:40.451Z,41.91
2024-05-09T06:16:45.957Z,47.10
2024-05-09T06:21:48.443Z,37.48
2024-05-09T06:26:51.135Z,42.96
2024-05-09T06:31:58.572Z,46.65
2024-05-09T06:37:02.857Z,44.87
2024-05-09T06:42:05.406Z,46.78
2024-05-09T06:47:10.770Z,42.67
2024-05-09T06:52:13.295Z,48.28
2024-05-09T06:57:17.550Z,42.45
2024-05-09T07:02:23.231Z,41.59
2024-05-09T07:07:26.159Z,40.74
2024-05-09T07:12:29.261Z,36.16
2024-05-09T07:17:34.524Z,41.85
2024-05-09T07:22:37.151Z,38.72
2024-05-09T07:27:39.583Z,36.68
2024-05-09T07:32:44.929Z,35.35
2024-05-09T07:37:48.066Z,38.79
2024-05-09T07:42:50.785Z,39.27
2024-05-09T07:49:44.145Z,38.13
2024-05-09T07:53:38.200Z,40.79
2024-05-09T07:58:40.764Z,42.00
2024-05-09T08:03:46.648Z,39.42
2024-05-09T08:08:49.548Z,40.92
2024-05-09T08:13:52.291Z,34.99
2024-05-09T08:18:57.957Z,40.92
2024-05-09T08:24:00.623Z,36.60
2024-05-09T08:29:03.148Z,33.59
2024-05-09T08:34:08.761Z,36.85
2024-05-09T08:39:11.255Z,40.15
2024-05-09T08:44:14.303Z,36.36
2024-05-09T08:49:19.886Z,34.30
2024-05-09T08:54:22.442Z,36.59
2024-05-09T08:59:31.622Z,35.32
2024-05-09T09:04:40.950Z,32.21
2024-05-09T09:09:46.022Z,31.75
2024-05-09T09:14:48.557Z,31.48
2024-05-09T09:19:53.993Z,32.14
2024-05-09T09:24:56.509Z,32.38
2024-05-09T09:29:59.142Z,28.61
2024-05-09T09:35:04.942Z,30.12
2024-05-09T09:40:13.306Z,32.05
2024-05-09T09:45:16.792Z,29.77
2024-05-09T09:50:31.330Z,27.32
2024-05-09T10:00:40.558Z,28.06
2024-05-09T10:05:47.442Z,28.95
2024-05-09T10:10:50.769Z,29.31
2024-05-09T10:15:54.746Z,27.51
2024-05-09T10:21:00.346Z,26.90
2024-05-09T10:26:05.826Z,25.43
2024-05-09T10:31:10.294Z,27.12
